Time;durP1;ratioP1;P1;durP2;ratioP2;P2;SDS_P1;SDS_P2;PMS_P1;PMS_P2;Temp;Humidity;BMP_temperature;BMP_pressure;BME280_temperature;BME280_humidity;BME280_pressure;Samples;Min_cycle;Max_cycle;Signal;HPM_P1;HPM_P2
2023/06/20 00:01:09;;;;;;;8.45;7.07;;;;;;;19.24;100.00;98285.88;4179017;28;20041;-73
2023/06/20 00:03:09;;;;;;;8.63;7.32;;;;;;;19.17;100.00;98285.25;4175142;28;20059;-73
2023/06/20 00:05:10;;;;;;;7.93;6.57;;;;;;;19.12;100.00;98285.81;4176289;28;20433;-73
2023/06/20 00:07:10;;;;;;;7.80;7.03;;;;;;;19.08;100.00;98285.88;4178778;28;20056;-73
2023/06/20 00:09:10;;;;;;;8.00;7.20;;;;;;;19.02;100.00;98282.81;4183134;28;20135;-73
2023/06/20 00:11:11;;;;;;;8.70;7.30;;;;;;;18.96;100.00;98284.59;4179989;28;20057;-73
2023/06/20 00:13:11;;;;;;;9.50;8.25;;;;;;;18.93;100.00;98284.66;4175696;28;20119;-73
2023/06/20 00:15:11;;;;;;;8.52;7.05;;;;;;;18.88;100.00;98274.78;4173125;28;20200;-73
2023/06/20 00:17:13;;;;;;;8.52;7.55;;;;;;;18.86;100.00;98282.03;4173317;28;20384;-73
2023/06/20 00:19:14;;;;;;;10.68;8.10;;;;;;;18.85;100.00;98272.84;4176020;28;20118;-73
2023/06/20 00:21:14;;;;;;;10.73;8.32;;;;;;;18.79;100.00;98269.81;4180011;28;20112;-73
2023/06/20 00:23:16;;;;;;;9.00;8.10;;;;;;;18.77;100.00;98271.44;4174673;28;20544;-73
2023/06/20 00:25:17;;;;;;;7.65;6.70;;;;;;;18.79;100.00;98280.22;4179570;28;20047;-73
2023/06/20 00:27:17;;;;;;;9.32;7.60;;;;;;;18.79;100.00;98269.03;4177403;28;20029;-73
2023/06/20 00:29:17;;;;;;;10.20;8.32;;;;;;;18.80;100.00;98270.59;4180642;28;20033;-73
2023/06/20 00:31:18;;;;;;;14.00;8.73;;;;;;;18.76;100.00;98283.88;4177076;28;20481;-73
2023/06/20 00:33:19;;;;;;;9.95;8.52;;;;;;;18.76;100.00;98273.47;4179449;28;20056;-73
2023/06/20 00:35:19;;;;;;;9.35;8.35;;;;;;;18.74;100.00;98272.34;4181378;28;20082;-73
2023/06/20 00:37:20;;;;;;;8.98;7.65;;;;;;;18.74;100.00;98275.13;4189245;28;20551;-73
2023/06/20 00:39:20;;;;;;;8.98;8.07;;;;;;;18.78;100.00;98278.63;4188348;28;20041;-73
2023/06/20 00:41:21;;;;;;;8.82;7.97;;;;;;;18.78;100.00;98278.63;4174941;28;20080;-73
2023/06/20 00:43:21;;;;;;;11.05;8.25;;;;;;;18.78;100.00;98282.25;4183186;28;20052;-73
2023/06/20 00:45:34;;;;;;;11.45;8.45;;;;;;;18.76;100.00;98283.88;4183361;28;20102;-73
2023/06/20 00:47:34;;;;;;;10.38;7.93;;;;;;;18.75;100.00;98285.13;4174173;28;20037;-73
2023/06/20 00:49:35;;;;;;;11.20;8.73;;;;;;;18.74;100.00;98284.34;4181358;28;20063;-73
2023/06/20 00:51:37;;;;;;;10.18;8.05;;;;;;;18.72;100.00;98297.22;4187666;28;20068;-73
2023/06/20 00:53:38;;;;;;;8.90;7.68;;;;;;;18.69;100.00;98284.84;4186951;28;20376;-73
2023/06/20 00:55:38;;;;;;;9.20;7.93;;;;;;;18.73;100.00;98298.78;4189126;28;20159;-73
2023/06/20 00:57:42;;;;;;;11.38;8.65;;;;;;;18.73;100.00;98293.19;4187428;28;20048;-73
2023/06/20 00:59:47;;;;;;;9.88;8.70;;;;;;;18.76;100.00;98295.88;4188944;28;20036;-73
2023/06/20 01:01:47;;;;;;;12.75;8.90;;;;;;;18.72;100.00;98289.59;4187379;28;20044;-73
2023/06/20 01:03:49;;;;;;;8.50;7.60;;;;;;;18.77;100.00;98289.06;4176764;28;20146;-73
2023/06/20 01:06:04;;;;;;;12.35;8.80;;;;;;;18.75;100.00;98282.31;4184920;28;20472;-73
2023/06/20 01:08:43;;;;;;;11.57;7.55;;;;;;;18.74;100.00;98298.34;4173288;28;20045;-73
2023/06/20 01:10:54;;;;;;;9.95;8.10;;;;;;;18.69;100.00;98279.25;4110956;28;20400;-73
2023/06/20 01:13:04;;;;;;;8.75;7.82;;;;;;;18.71;100.00;98276.03;4177163;28;20488;-73
2023/06/20 01:15:26;;;;;;;12.65;8.65;;;;;;;18.67;100.00;98276.09;4173485;28;20435;-73
2023/06/20 01:17:45;;;;;;;12.48;8.50;;;;;;;18.66;100.00;98294.13;4174905;28;20087;-73
2023/06/20 01:19:56;;;;;;;9.45;7.63;;;;;;;18.64;100.00;98287.38;4172224;28;20041;-73
2023/06/20 01:22:02;;;;;;;10.40;8.73;;;;;;;18.62;100.00;98285.00;4173068;28;20052;-73
2023/06/20 01:24:17;;;;;;;9.82;8.82;;;;;;;18.65;100.00;98275.75;4186910;28;20067;-73
2023/06/20 01:26:29;;;;;;;13.90;8.95;;;;;;;18.67;100.00;98273.28;4172299;28;20423;-73
2023/06/20 01:28:52;;;;;;;12.15;9.82;;;;;;;18.65;100.00;98275.75;4173139;28;20378;-73
2023/06/20 01:31:03;;;;;;;12.93;10.10;;;;;;;18.59;100.00;98271.06;4175422;28;20076;-73
2023/06/20 01:33:06;;;;;;;13.50;10.07;;;;;;;18.53;100.00;98270.78;4178179;28;20495;-73
2023/06/20 01:35:15;;;;;;;15.20;9.90;;;;;;;18.52;100.00;98274.81;4172934;28;20055;-73
2023/06/20 01:37:20;;;;;;;14.35;10.43;;;;;;;18.55;100.00;98281.59;4173277;28;20081;-73
2023/06/20 01:39:27;;;;;;;13.05;9.75;;;;;;;18.53;100.00;98288.41;4181575;28;20107;-73
2023/06/20 01:41:30;;;;;;;10.85;9.23;;;;;;;18.53;100.00;98280.00;4187802;28;20093;-73
2023/06/20 01:43:32;;;;;;;10.85;9.73;;;;;;;18.49;100.00;98284.09;4181770;28;20443;-73
2023/06/20 01:45:37;;;;;;;11.65;9.15;;;;;;;18.53;100.00;98284.81;4176638;28;20398;-73
2023/06/20 01:47:39;;;;;;;11.40;10.18;;;;;;;18.53;100.00;98291.22;4179092;28;20054;-73
2023/06/20 01:49:42;;;;;;;12.05;9.18;;;;;;;18.56;100.00;98281.16;4181262;28;20039;-73
2023/06/20 01:51:43;;;;;;;11.98;10.07;;;;;;;18.56;100.00;98294.38;4186903;28;20140;-73
2023/06/20 01:53:45;;;;;;;13.40;9.20;;;;;;;18.60;100.00;98289.44;4177270;28;20036;-73
2023/06/20 01:55:48;;;;;;;11.20;9.13;;;;;;;18.64;100.00;98290.97;4172394;28;20140;-73
2023/06/20 01:57:50;;;;;;;10.20;9.13;;;;;;;18.68;100.00;98272.06;4184074;28;20274;-73
2023/06/20 01:59:52;;;;;;;9.40;8.40;;;;;;;18.73;100.00;98273.56;4187480;28;20044;-73
2023/06/20 02:01:54;;;;;;;13.25;10.13;;;;;;;18.73;100.00;98282.75;4184918;28;20052;-73
2023/06/20 02:03:56;;;;;;;14.68;9.55;;;;;;;18.75;100.00;98279.50;4186761;28;20329;-73
2023/06/20 02:05:58;;;;;;;11.52;9.35;;;;;;;18.69;100.00;98273.63;4186151;28;20041;-73
2023/06/20 02:08:00;;;;;;;10.80;8.85;;;;;;;18.72;100.00;98277.59;4175811;28;20174;-73
2023/06/20 02:10:01;;;;;;;10.10;8.98;;;;;;;18.70;100.00;98271.63;4172967;28;20515;-73
2023/06/20 02:12:02;;;;;;;10.33;9.33;;;;;;;18.70;100.00;98271.63;4179885;28;20045;-74
2023/06/20 02:14:03;;;;;;;9.23;8.20;;;;;;;18.74;100.00;98269.53;4186726;28;20102;-74
2023/06/20 02:16:09;;;;;;;10.02;8.88;;;;;;;18.76;100.00;98269.88;4186739;28;20029;-73
2023/06/20 02:18:09;;;;;;;9.27;8.35;;;;;;;18.79;100.00;98264.19;4187430;28;20752;-73
2023/06/20 02:20:10;;;;;;;10.90;8.82;;;;;;;18.82;100.00;98267.34;4173374;28;20029;-73
2023/06/20 02:22:14;;;;;;;10.48;8.30;;;;;;;18.83;100.00;98269.69;4185592;28;20219;-73
2023/06/20 02:24:20;;;;;;;9.52;8.30;;;;;;;18.84;100.00;98276.88;4171319;28;20067;-73
2023/06/20 02:26:28;;;;;;;11.82;8.25;;;;;;;18.82;100.00;98259.72;4172362;28;20057;-73
2023/06/20 02:28:29;;;;;;;15.88;8.73;;;;;;;18.87;100.00;98261.22;4171973;28;20069;-73
2023/06/20 02:30:31;;;;;;;10.95;8.10;;;;;;;18.86;100.00;98263.22;4183215;28;20508;-73
2023/06/20 02:32:32;;;;;;;9.90;8.63;;;;;;;18.85;100.00;98263.66;4186033;28;20037;-73
2023/06/20 02:34:34;;;;;;;9.80;8.52;;;;;;;18.83;100.00;98266.91;4188154;28;20052;-73
2023/06/20 02:36:35;;;;;;;11.25;8.95;;;;;;;18.76;100.00;98265.06;4178636;28;20171;-73
2023/06/20 02:38:36;;;;;;;13.35;9.45;;;;;;;18.72;100.00;98264.38;4174106;28;20037;-73
2023/06/20 02:40:36;;;;;;;10.77;8.73;;;;;;;18.69;100.00;98267.25;4181374;28;20083;-73
2023/06/20 02:42:37;;;;;;;13.85;9.50;;;;;;;18.64;100.00;98259.34;4175677;28;20033;-73
2023/06/20 02:44:37;;;;;;;11.75;8.98;;;;;;;18.60;100.00;98261.44;4175709;28;20428;-73
2023/06/20 02:47:23;;;;;;;10.30;9.15;;;;;;;18.58;100.00;98275.88;4176920;28;20061;-73
2023/06/20 02:49:52;;;;;;;11.73;8.82;;;;;;;18.55;100.00;98265.56;4154241;28;20075;-73
2023/06/20 02:52:31;;;;;;;10.35;8.55;;;;;;;18.56;100.00;98264.34;4166371;28;20072;-73
2023/06/20 02:54:51;;;;;;;9.63;8.05;;;;;;;18.54;100.00;98264.00;4177450;28;20048;-73
2023/06/20 02:56:54;;;;;;;11.13;9.10;;;;;;;18.55;100.00;98264.78;4178043;28;20385;-73
2023/06/20 02:58:57;;;;;;;10.63;9.30;;;;;;;18.55;100.00;98259.19;4179880;28;20117;-73
2023/06/20 03:00:59;;;;;;;14.27;9.40;;;;;;;18.55;100.00;98270.38;4179364;28;20444;-73
2023/06/20 03:03:07;;;;;;;12.30;9.80;;;;;;;18.53;100.00;98265.19;4180708;28;20037;-73
2023/06/20 03:05:11;;;;;;;11.57;9.10;;;;;;;18.53;100.00;98263.19;4180570;28;20057;-73
2023/06/20 03:07:11;;;;;;;11.00;8.82;;;;;;;18.53;100.00;98266.00;4175493;28;20484;-73
2023/06/20 03:09:13;;;;;;;17.52;10.07;;;;;;;18.54;100.00;98264.00;4175252;28;20044;-73
2023/06/20 03:11:13;;;;;;;13.27;9.53;;;;;;;18.57;100.00;98270.72;4183872;28;20037;-73
2023/06/20 03:13:16;;;;;;;12.73;9.73;;;;;;;18.59;100.00;98271.06;4187188;28;20354;-73
2023/06/20 03:15:16;;;;;;;;;;;;;;;18.59;100.00;98280.25;4190427;28;20040;-73
2023/06/20 03:17:16;;;;;;;16.13;11.27;;;;;;;18.56;100.00;98274.75;4190925;28;20368;-73
2023/06/20 03:19:17;;;;;;;10.45;9.35;;;;;;;18.55;100.00;98281.59;4182487;28;20358;-73
2023/06/20 03:21:19;;;;;;;12.70;10.15;;;;;;;18.57;100.00;98279.91;4176104;28;20049;-73
2023/06/20 03:23:20;;;;;;;;;;;;;;;18.57;100.00;98281.94;4177868;28;20487;-73
2023/06/20 03:25:20;;;;;;;10.13;9.00;;;;;;;18.56;100.00;98281.16;4177631;28;19924;-73
2023/06/20 03:27:20;;;;;;;16.80;10.52;;;;;;;18.56;100.00;98269.94;4186400;28;20282;-73
2023/06/20 03:29:20;;;;;;;10.27;9.00;;;;;;;18.60;100.00;98286.66;4190821;28;20056;-73
2023/06/20 03:31:21;;;;;;;15.48;9.73;;;;;;;18.60;100.00;98281.84;4189511;28;20110;-73
2023/06/20 03:33:21;;;;;;;15.57;11.32;;;;;;;18.62;100.00;98281.38;4180043;28;20033;-73
2023/06/20 03:35:22;;;;;;;13.30;10.50;;;;;;;18.58;100.00;98281.50;4178845;28;20095;-73
2023/06/20 03:37:22;;;;;;;11.95;9.63;;;;;;;18.58;100.00;98286.31;4179771;28;20128;-73
2023/06/20 03:39:22;;;;;;;11.55;9.38;;;;;;;18.59;100.00;98271.06;4186256;28;20047;-73
2023/06/20 03:41:23;;;;;;;11.65;8.98;;;;;;;18.60;100.00;98279.03;4175591;28;20044;-73
2023/06/20 03:43:23;;;;;;;18.48;10.32;;;;;;;18.63;100.00;98274.59;4172602;28;20045;-73
2023/06/20 03:45:23;;;;;;;11.73;10.30;;;;;;;18.61;100.00;98285.41;4175218;28;20044;-73
2023/06/20 03:47:24;;;;;;;12.52;10.82;;;;;;;18.61;100.00;98291.81;4174569;28;20550;-73
2023/06/20 03:49:24;;;;;;;11.82;9.45;;;;;;;18.59;100.00;98285.88;4174715;28;20049;-73
2023/06/20 03:51:24;;;;;;;12.60;10.38;;;;;;;18.58;100.00;98287.09;4178393;28;20047;-73
2023/06/20 03:53:24;;;;;;;12.52;10.13;;;;;;;18.58;100.00;98289.91;4173249;28;20053;-73
2023/06/20 03:55:25;;;;;;;12.70;10.57;;;;;;;18.57;100.00;98279.13;4176973;28;20041;-73
2023/06/20 03:57:25;;;;;;;12.43;10.07;;;;;;;18.57;100.00;98287.53;4179962;28;20037;-73
2023/06/20 03:59:25;;;;;;;13.43;10.57;;;;;;;18.59;100.00;98293.47;4177884;28;20039;-73
2023/06/20 04:01:26;;;;;;;13.57;12.02;;;;;;;18.57;100.00;98287.53;4177060;28;20124;-73
2023/06/20 04:03:28;;;;;;;12.13;10.90;;;;;;;18.53;100.00;98294.03;4174671;28;20453;-73
2023/06/20 04:05:29;;;;;;;11.52;9.70;;;;;;;18.49;100.00;98290.50;4175934;28;20479;-73
2023/06/20 04:07:31;;;;;;;12.43;10.05;;;;;;;18.54;100.00;98297.59;4178385;28;20093;-73
2023/06/20 04:09:31;;;;;;;18.60;12.70;;;;;;;18.53;100.00;98299.63;4174037;28;20284;-73
2023/06/20 04:11:32;;;;;;;15.18;11.43;;;;;;;18.54;100.00;98306.00;4175367;28;20044;-73
2023/06/20 04:13:32;;;;;;;14.00;10.15;;;;;;;18.52;100.00;98305.63;4179792;28;20120;-73
2023/06/20 04:15:32;;;;;;;14.18;11.80;;;;;;;18.55;100.00;98310.38;4174139;28;20523;-73
2023/06/20 04:17:33;;;;;;;16.52;10.75;;;;;;;18.57;100.00;98321.16;4186596;28;20366;-73
2023/06/20 04:19:33;;;;;;;13.75;10.20;;;;;;;18.57;100.00;98316.34;4188632;28;20739;-73
2023/06/20 04:21:33;;;;;;;16.63;12.48;;;;;;;18.60;100.00;98320.28;4189568;28;20115;-73
2023/06/20 04:23:34;;;;;;;15.77;11.90;;;;;;;18.59;100.00;98327.09;4177699;28;20143;-73
2023/06/20 04:25:35;;;;;;;12.98;11.48;;;;;;;18.57;100.00;98333.16;4188272;28;20135;-73
2023/06/20 04:27:36;;;;;;;17.05;11.05;;;;;;;18.64;100.00;98349.81;4181323;28;20083;-73
2023/06/20 04:29:36;;;;;;;14.02;12.57;;;;;;;18.67;100.00;98362.16;4181942;28;20542;-73
2023/06/20 04:31:36;;;;;;;15.27;11.55;;;;;;;18.67;100.00;98376.19;4174083;28;20065;-73
2023/06/20 04:33:43;;;;;;;17.25;10.88;;;;;;;18.71;100.00;98397.31;4172240;28;20047;-73
2023/06/20 04:35:43;;;;;;;12.35;10.18;;;;;;;18.73;100.00;98416.50;4178443;28;20051;-73
2023/06/20 04:37:43;;;;;;;15.65;12.27;;;;;;;18.78;100.00;98433.59;4173792;28;20045;-73
2023/06/20 04:39:44;;;;;;;13.23;10.45;;;;;;;18.82;100.00;98410.28;4165292;28;20127;-73
2023/06/20 04:41:44;;;;;;;12.48;11.18;;;;;;;18.96;100.00;98419.16;4166531;28;20691;-73
2023/06/20 04:43:45;;;;;;;13.15;11.75;;;;;;;18.95;100.00;98420.41;4168711;28;20092;-73
2023/06/20 04:45:45;;;;;;;13.35;11.05;;;;;;;18.90;100.00;98428.53;4173559;28;20382;-73
2023/06/20 04:47:50;;;;;;;12.63;10.93;;;;;;;18.76;100.00;98426.81;4183478;28;20072;-73
2023/06/20 04:49:50;;;;;;;12.88;10.50;;;;;;;18.64;100.00;98428.25;4173375;28;20041;-73
2023/06/20 04:51:50;;;;;;;14.32;11.00;;;;;;;18.66;100.00;98419.44;4182272;28;20053;-73
2023/06/20 04:53:52;;;;;;;12.15;9.75;;;;;;;18.45;100.00;98423.44;4176274;28;20083;-73
2023/06/20 04:55:53;;;;;;;11.77;9.63;;;;;;;18.41;100.00;98420.72;4177106;28;20044;-73
2023/06/20 04:57:54;;;;;;;10.52;8.88;;;;;;;18.32;100.00;98420.53;4178503;28;20045;-73
2023/06/20 04:59:54;;;;;;;11.48;8.40;;;;;;;18.20;100.00;98418.34;4176895;28;20548;-73
2023/06/20 05:01:55;;;;;;;11.38;8.35;;;;;;;18.17;100.00;98425.63;4175130;28;20128;-73
2023/06/20 05:03:56;;;;;;;11.50;8.00;;;;;;;18.10;100.00;98396.97;4176372;28;20028;-73
2023/06/20 05:05:56;;;;;;;12.52;8.80;;;;;;;18.07;100.00;98381.03;4090576;28;20063;-73
2023/06/20 05:07:56;;;;;;;12.68;9.23;;;;;;;18.00;100.00;98381.19;4176783;28;20127;-73
2023/06/20 05:09:57;;;;;;;12.05;9.52;;;;;;;18.00;100.00;98383.97;4177757;28;20066;-73
2023/06/20 05:11:57;;;;;;;11.75;9.73;;;;;;;17.96;100.00;98384.84;4178907;28;20288;-73
2023/06/20 05:13:57;;;;;;;13.35;9.15;;;;;;;18.02;100.00;98387.13;4171440;28;20044;-73
2023/06/20 05:15:57;;;;;;;9.43;8.18;;;;;;;18.06;100.00;98396.25;4174437;28;20496;-73
2023/06/20 05:17:58;;;;;;;13.82;8.85;;;;;;;18.12;100.00;98402.91;4177031;28;20048;-73
2023/06/20 05:20:05;;;;;;;11.98;9.20;;;;;;;18.18;100.00;98404.78;4175890;28;20372;-73
2023/06/20 05:22:06;;;;;;;11.88;9.82;;;;;;;18.17;100.00;98400.41;4177294;28;20044;-73
2023/06/20 05:24:06;;;;;;;9.80;8.48;;;;;;;18.19;100.00;98408.38;4176882;28;20465;-73
2023/06/20 05:26:06;;;;;;;13.23;9.68;;;;;;;18.18;100.00;98409.59;4174153;28;20029;-74
2023/06/20 05:28:07;;;;;;;11.65;9.73;;;;;;;18.22;100.00;98410.34;4176408;28;20043;-73
2023/06/20 05:30:08;;;;;;;10.73;9.63;;;;;;;18.24;100.00;98399.50;4173709;28;20300;-73
2023/06/20 05:32:09;;;;;;;11.10;9.93;;;;;;;18.17;100.00;98399.63;4175940;28;20087;-73
2023/06/20 05:34:09;;;;;;;15.00;10.82;;;;;;;18.14;100.00;98378.09;4178134;28;20033;-73
2023/06/20 05:36:09;;;;;;;10.85;9.77;;;;;;;18.17;100.00;98366.03;4177861;28;20047;-73
2023/06/20 05:38:11;;;;;;;11.32;9.60;;;;;;;18.15;100.00;98354.47;4174938;28;20057;-73
2023/06/20 05:40:11;;;;;;;13.13;10.52;;;;;;;18.14;100.00;98364.09;4177836;28;20064;-73
2023/06/20 05:42:12;;;;;;;13.20;10.30;;;;;;;18.07;100.00;98376.22;4175799;28;20055;-73
2023/06/20 05:44:12;;;;;;;13.57;10.50;;;;;;;18.06;100.00;98357.06;4173896;28;20041;-73
2023/06/20 05:46:13;;;;;;;13.05;10.43;;;;;;;18.01;100.00;98360.38;4177105;28;20024;-73
2023/06/20 05:48:13;;;;;;;11.52;10.32;;;;;;;18.01;100.00;98349.16;4171182;28;20036;-73
2023/06/20 05:50:14;;;;;;;11.63;10.25;;;;;;;18.02;100.00;98350.75;4162310;28;21033;-73
2023/06/20 05:52:15;;;;;;;12.98;9.65;;;;;;;18.07;100.00;98353.84;4168582;28;20351;-74
2023/06/20 05:54:15;;;;;;;13.82;10.27;;;;;;;18.10;100.00;98341.75;4169602;28;20044;-74
2023/06/20 05:56:15;;;;;;;11.63;8.73;;;;;;;18.12;100.00;98332.94;4178543;28;20047;-74
2023/06/20 05:58:16;;;;;;;10.85;9.75;;;;;;;18.17;100.00;98326.81;4180798;28;20350;-74
2023/06/20 06:00:17;;;;;;;13.75;9.40;;;;;;;18.19;100.00;98327.19;4175462;28;20024;-73
2023/06/20 06:02:20;;;;;;;12.20;8.88;;;;;;;18.21;100.00;98322.75;4174539;28;20330;-73
2023/06/20 06:04:21;;;;;;;10.20;8.45;;;;;;;18.19;100.00;98313.19;4176493;28;20144;-73
2023/06/20 06:06:21;;;;;;;10.57;8.98;;;;;;;18.24;100.00;98313.47;4187754;28;20076;-73
2023/06/20 06:08:21;;;;;;;9.57;8.55;;;;;;;18.22;100.00;98309.53;4187270;28;20040;-73
2023/06/20 06:10:22;;;;;;;9.82;8.57;;;;;;;18.20;100.00;98321.16;4187780;28;20507;-74
2023/06/20 06:12:22;;;;;;;11.27;8.10;;;;;;;18.25;100.00;98322.66;4188708;28;20109;-74
2023/06/20 06:14:22;;;;;;;11.90;8.68;;;;;;;18.28;100.00;98307.00;4189733;28;20391;-73
2023/06/20 06:16:23;;;;;;;9.57;8.27;;;;;;;18.28;100.00;98313.38;4175370;28;20036;-74
2023/06/20 06:18:23;;;;;;;10.23;8.18;;;;;;;18.28;100.00;98312.59;4173824;28;20189;-73
2023/06/20 06:20:23;;;;;;;11.90;8.75;;;;;;;18.24;100.00;98304.28;4180785;28;20048;-74
2023/06/20 06:22:24;;;;;;;9.32;8.07;;;;;;;18.27;100.00;98311.81;4177591;28;20321;-74
2023/06/20 06:24:24;;;;;;;12.48;8.30;;;;;;;18.25;100.00;98309.44;4175284;28;20468;-74
2023/06/20 06:26:25;;;;;;;8.55;7.68;;;;;;;18.28;100.00;98310.56;4175649;28;20389;-73
2023/06/20 06:28:27;;;;;;;10.82;8.48;;;;;;;18.32;100.00;98310.50;4175758;28;20056;-74
2023/06/20 06:30:28;;;;;;;9.05;8.18;;;;;;;18.36;100.00;98317.59;4175503;28;20041;-74
2023/06/20 06:32:28;;;;;;;9.05;7.45;;;;;;;18.48;100.00;98319.75;4175673;28;20194;-74
2023/06/20 06:34:28;;;;;;;9.05;7.57;;;;;;;18.58;100.00;98320.72;4184293;28;20082;-74
2023/06/20 06:36:31;;;;;;;8.80;7.75;;;;;;;18.69;100.00;98318.47;4175417;28;20151;-74
2023/06/20 06:38:32;;;;;;;9.13;7.68;;;;;;;18.81;100.00;98325.41;4175874;28;20072;-73
2023/06/20 06:40:32;;;;;;;8.95;7.05;;;;;;;18.92;100.00;98319.53;4175487;28;20063;-74
2023/06/20 06:42:33;;;;;;;12.20;8.50;;;;;;;19.01;100.00;98317.69;4189317;28;20033;-74
2023/06/20 06:44:33;;;;;;;8.98;7.50;;;;;;;19.09;100.00;98332.31;4190715;28;20042;-74
2023/06/20 06:46:34;;;;;;;13.00;8.80;;;;;;;19.14;100.00;98354.25;4183244;28;20076;-74
2023/06/20 06:48:34;;;;;;;10.57;7.32;;;;;;;19.15;100.00;98349.41;4184079;28;20041;-74
2023/06/20 06:50:34;;;;;;;9.30;7.80;;;;;;;19.23;100.00;98351.59;4176612;28;20057;-73
2023/06/20 06:52:35;;;;;;;9.60;8.43;;;;;;;19.29;100.00;98360.28;4174974;28;20503;-74
2023/06/20 06:54:35;;;;;;;12.13;8.88;;;;;;;19.36;100.00;98355.28;4185205;28;20036;-74
2023/06/20 06:56:35;;;;;;;11.32;8.88;;;;;;;19.44;100.00;98358.66;4190371;28;20190;-73
2023/06/20 06:58:36;;;;;;;11.23;9.27;;;;;;;19.51;100.00;98346.47;4186937;28;20043;-73
2023/06/20 07:00:36;;;;;;;11.98;9.25;;;;;;;19.58;100.00;98352.72;4185025;28;20039;-74
2023/06/20 07:02:36;;;;;;;11.40;8.57;;;;;;;19.61;100.00;98349.06;4189446;28;20044;-73
2023/06/20 07:04:37;;;;;;;12.38;9.15;;;;;;;19.66;100.00;98356.13;4181035;28;20215;-74
2023/06/20 07:06:37;;;;;;;11.63;9.70;;;;;;;19.80;100.00;98354.97;4186630;28;20040;-74
2023/06/20 07:08:37;;;;;;;12.40;9.35;;;;;;;20.00;100.00;98349.97;4188436;28;20039;-74
2023/06/20 07:10:37;;;;;;;11.55;8.45;;;;;;;20.13;100.00;98356.41;4175401;28;20041;-74
2023/06/20 07:12:38;;;;;;;12.35;9.60;;;;;;;20.29;100.00;98349.94;4174832;28;20578;-73
2023/06/20 07:14:38;;;;;;;13.07;9.88;;;;;;;20.48;100.00;98343.38;4175232;28;20128;-73
2023/06/20 07:16:38;;;;;;;11.65;10.10;;;;;;;20.60;100.00;98333.34;4174911;28;20492;-73
2023/06/20 07:18:39;;;;;;;13.52;10.50;;;;;;;20.83;100.00;98331.44;4175544;28;20418;-73
2023/06/20 07:20:39;;;;;;;11.88;10.68;;;;;;;20.86;100.00;98324.94;4175225;28;20037;-73
2023/06/20 07:22:39;;;;;;;14.98;9.35;;;;;;;20.78;100.00;98323.59;4174461;28;20029;-73
2023/06/20 07:24:40;;;;;;;10.68;9.52;;;;;;;20.75;100.00;98326.06;4174492;28;20043;-73
2023/06/20 07:26:40;;;;;;;14.50;11.25;;;;;;;20.72;100.00;98329.78;4175165;28;20068;-74
2023/06/20 07:28:40;;;;;;;14.00;9.65;;;;;;;20.65;100.00;98341.25;4175051;28;20141;-73
2023/06/20 07:30:41;;;;;;;10.07;9.07;;;;;;;20.66;100.00;98340.00;4174670;28;20759;-73
2023/06/20 07:32:41;;;;;;;12.13;10.82;;;;;;;20.62;100.00;98333.72;4174714;28;20408;-73
2023/06/20 07:34:42;;;;;;;10.45;9.35;;;;;;;20.63;100.00;98331.69;4174790;28;20048;-74
2023/06/20 07:36:42;;;;;;;11.07;9.98;;;;;;;20.72;100.00;98335.41;4174701;28;20123;-73
2023/06/20 07:38:42;;;;;;;12.88;10.82;;;;;;;20.75;100.00;98339.31;4179482;28;20083;-74
2023/06/20 07:40:42;;;;;;;12.80;11.60;;;;;;;20.73;100.00;98327.75;4187739;28;20439;-74
2023/06/20 07:42:43;;;;;;;13.25;11.30;;;;;;;20.78;100.00;98332.03;4187631;28;20063;-73
2023/06/20 07:44:43;;;;;;;12.77;11.50;;;;;;;20.87;100.00;98315.25;4175087;28;20207;-73
2023/06/20 07:46:43;;;;;;;13.30;11.75;;;;;;;21.12;100.00;98323.66;4175411;28;20080;-73
2023/06/20 07:48:46;;;;;;;13.98;12.13;;;;;;;21.28;100.00;98320.75;4174608;28;20143;-73
2023/06/20 07:50:47;;;;;;;14.10;12.15;;;;;;;21.53;100.00;98319.09;4174597;28;20082;-73
2023/06/20 07:52:47;;;;;;;12.57;11.32;;;;;;;21.58;100.00;98310.84;4174610;28;21012;-73
2023/06/20 07:54:47;;;;;;;14.07;12.68;;;;;;;21.65;100.00;98314.63;4174667;28;20099;-73
2023/06/20 07:56:48;;;;;;;13.48;12.02;;;;;;;21.59;100.00;98315.22;4174755;28;20103;-73
2023/06/20 07:58:48;;;;;;;14.90;11.95;;;;;;;21.76;100.00;98309.41;4175361;28;20094;-73
2023/06/20 08:00:48;;;;;;;13.95;11.80;;;;;;;21.86;100.00;98309.03;4180687;28;20409;-73
2023/06/20 08:02:49;;;;;;;12.68;10.80;;;;;;;21.93;100.00;98308.00;4189063;28;20498;-73
2023/06/20 08:04:49;;;;;;;12.43;10.35;;;;;;;22.03;100.00;98314.47;4189703;28;20045;-73
2023/06/20 08:06:49;;;;;;;11.15;10.05;;;;;;;22.02;100.00;98307.28;4188945;28;20043;-73
2023/06/20 08:08:50;;;;;;;12.25;10.18;;;;;;;21.96;100.00;98314.72;4189787;28;20044;-73
2023/06/20 08:10:50;;;;;;;12.25;11.05;;;;;;;21.85;100.00;98321.53;4188392;28;20036;-73
2023/06/20 08:12:50;;;;;;;10.80;9.70;;;;;;;21.83;100.00;98323.22;4186441;28;20037;-73
2023/06/20 08:14:51;;;;;;;11.52;10.43;;;;;;;21.90;100.00;98319.38;4174388;28;20419;-73
2023/06/20 08:16:51;;;;;;;11.05;9.95;;;;;;;21.80;100.00;98313.69;4178967;28;20199;-73
2023/06/20 08:18:52;;;;;;;11.75;10.38;;;;;;;21.85;100.00;98310.28;4189652;28;20178;-73
2023/06/20 08:20:52;;;;;;;12.80;10.88;;;;;;;21.88;100.00;98317.81;4187605;28;20063;-73
2023/06/20 08:22:53;;;;;;;11.02;9.93;;;;;;;21.97;100.00;98317.09;4178181;28;20037;-73
2023/06/20 08:24:53;;;;;;;10.75;9.63;;;;;;;22.04;100.00;98308.38;4174386;28;20049;-73
2023/06/20 08:26:53;;;;;;;11.27;10.02;;;;;;;22.17;100.00;98307.53;4174024;28;20112;-73
2023/06/20 08:28:54;;;;;;;12.32;11.02;;;;;;;22.36;100.00;98297.94;4173805;28;20041;-73
2023/06/20 08:30:54;;;;;;;11.85;10.65;;;;;;;22.34;100.00;98300.41;4174283;28;20358;-73
2023/06/20 08:32:54;;;;;;;12.13;10.98;;;;;;;22.38;100.00;98298.25;4173547;28;20105;-73
2023/06/20 08:34:55;;;;;;;14.80;11.85;;;;;;;22.46;100.00;98293.13;4179894;28;20048;-73
2023/06/20 08:36:55;;;;;;;13.15;10.90;;;;;;;22.50;100.00;98296.59;4188924;28;20068;-73
2023/06/20 08:38:56;;;;;;;12.57;10.85;;;;;;;22.65;100.00;98298.38;4187929;28;20128;-73
2023/06/20 08:40:57;;;;;;;12.38;11.10;;;;;;;22.75;100.00;98301.22;4188541;28;20025;-73
2023/06/20 08:42:58;;;;;;;12.60;11.27;;;;;;;22.79;100.00;98307.53;4188761;28;20043;-73
2023/06/20 08:44:58;;;;;;;13.23;11.88;;;;;;;22.86;100.00;98296.78;4178674;28;20864;-73
2023/06/20 08:46:59;;;;;;;13.52;12.10;;;;;;;22.88;100.00;98304.75;4174034;28;20044;-73
2023/06/20 08:48:59;;;;;;;12.65;11.45;;;;;;;22.95;100.00;98296.00;4188029;28;20070;-73
2023/06/20 08:50:59;;;;;;;14.88;11.80;;;;;;;23.04;100.00;98298.84;4189344;28;20043;-73
2023/06/20 08:53:01;;;;;;;13.70;12.32;;;;;;;22.89;100.00;98295.03;4187812;28;20137;-73
2023/06/20 08:55:01;;;;;;;13.68;12.20;;;;;;;22.85;100.00;98295.19;4187951;28;20052;-73
2023/06/20 08:57:02;;;;;;;13.48;12.15;;;;;;;22.83;100.00;98294.03;4177468;28;20037;-73
2023/06/20 08:59:02;;;;;;;16.13;14.38;;;;;;;22.83;100.00;98294.84;4186326;28;20488;-73
2023/06/20 09:01:02;;;;;;;13.35;11.90;;;;;;;22.82;100.00;98298.13;4184749;28;20048;-73
2023/06/20 09:03:03;;;;;;;13.98;12.50;;;;;;;22.94;100.00;98297.25;4173059;28;20120;-73
2023/06/20 09:05:04;;;;;;;13.18;11.57;;;;;;;23.05;100.00;98300.41;4173579;28;20123;-73
2023/06/20 09:07:18;;;;;;;12.35;11.15;;;;;;;23.14;100.00;98300.44;4173561;28;20044;-73
2023/06/20 09:09:18;;;;;;;14.13;12.77;;;;;;;23.22;100.00;98300.91;4173402;28;20048;-73
2023/06/20 09:11:18;;;;;;;14.85;11.82;;;;;;;23.30;100.00;98302.19;4173758;28;20029;-73
2023/06/20 09:13:28;;;;;;;13.98;12.38;;;;;;;23.33;100.00;98306.88;4179257;28;20040;-73
2023/06/20 09:15:28;;;;;;;12.57;11.27;;;;;;;23.43;100.00;98297.19;4188159;28;20041;-73
2023/06/20 09:17:28;;;;;;;13.25;11.82;;;;;;;23.55;100.00;98306.75;4173553;28;20033;-73
2023/06/20 09:19:41;;;;;;;13.63;11.55;;;;;;;23.59;100.00;98303.78;4173529;28;20754;-73
2023/06/20 09:21:41;;;;;;;13.82;12.52;;;;;;;23.63;100.00;98299.56;4173596;28;20074;-73